Terminal Aerodrome Forecast
Issued by NWS

Home | Current Version | Previous Version | Text Only | Print | Product List | Glossary On
Versions: 1 2 3 4 5 6 7 8 9 10 11 12
000
FTUS41 KBTV 232336
TAFMSS
TAF
KMSS 232336Z 2400/2424 06008KT P6SM BKN100
     FM240700 07010KT P6SM VCSH OVC070
     FM240900 06010KT 6SM -SHRA BR OVC050
     FM241200 07010KT 4SM +SHRA BR OVC030
     FM242100 08011KT 5SM SHRA BR OVC015=

USA.gov is the U.S. government's official web portal to all federal, state and local government web resources and services.